Weather at Fort Erie (Eurocopter Canada) Heliport

Public forecast

Using degrees Celsius for public forecast. Weather courtesy of forecast.io.

Closest aviation weather report (METAR) to Fort Erie (Eurocopter Canada) Heliport

Closest report is Buffalo Niagara International Airport, 9.9 nm (18.4 km) E.

2024/05/24 19:54 (retrieved 58 minutes ago)

KBUF 241954Z 23011KT 10SM FEW060 FEW270 24/08 A2987 RMK AO2 SLP112 T02440078

Closest aviation forecast (TAF) to Fort Erie (Eurocopter Canada) Heliport

Closest forecast is Buffalo Niagara International Airport, 9.9 nm (18.4 km) E.

2024/05/24 18:36 (retrieved 2 hours ago)

TAF KBUF 241734Z 2418/2518 24013KT P6SM SKC FM242300 31004KT P6SM SKC FM250900 11007KT P6SM SCT250 FM251200 22013G21KT P6SM BKN200 FM251500 25015G23KT P6SM VCSH BKN060